Latest Coastal Weather Observations for Hobart

IDT60701

Issued at 1:12 pm EST Tuesday 3 May 2016 (issued every 10 minutes, with the page automatically refreshed every 10 minutes)

About coastal observations | Map of coastal stations | Coastal observations for TAS | Marine services | Other Formats
Station Details ID: 094029 Name: HOBART (ELLERSLIE ROAD) Lat: -42.89 Lon: 147.33 Height: 50.5 m
Data from the previous 72 hours. | See also: Recent months at Hobart
Date/Time
EST
Temp

°C
Wind Pressure Rain
since 9am
mm
Weather Cloud Vis
km
Sea
Height
m
Swell
Dir
 
Speed
knots
Gust
knots
hPa Trend Height
m
Period
s
Dir
03/01:00pm 13.2 N 8 13 986.9 - 2.0 - - - - - - -
03/12:30pm 12.0 N 9 13 987.9 - 2.0 - - - - - - -
03/12:00pm 11.5 N 8 12 989.4 - 1.8 Recent precip. - - - - - -
03/11:30am 11.2 WNW 1 5 989.2 - 1.8 - - - - - - -
03/11:00am 10.9 NW 5 7 988.8 - 1.2 - - - - - - -
03/10:30am 11.3 NNW 7 9 988.6 - 0.6 - - - - - - -
03/10:00am 12.4 NNW 9 13 988.2 - 0.0 - - - - - - -
03/09:30am 12.8 NNW 12 19 988.1 - 0.0 - - - - - - -
03/09:00am 13.2 N 6 8 988.5 - 6.0 - - - - - - -
03/08:30am 13.0 WNW 9 18 988.8 - 6.0 - - - - - - -
03/08:00am 13.9 NW 13 18 988.2 - 6.0 - - - - - - -
03/07:30am 13.6 NW 13 22 987.9 - 5.8 - - - - - - -
03/07:05am 13.7 NW 15 27 987.5 - 5.6 - - - - - - -
03/07:00am 13.6 NW 12 19 987.5 - 5.6 - - - - - - -
03/06:30am 13.4 NW 11 17 987.3 - 5.4 - - - - - - -
03/06:00am 13.4 NNW 10 14 987.4 - 4.4 Recent precip. - - - - - -
03/05:30am 13.4 W 6 8 988.0 - 3.2 - - - - - - -
03/05:00am 13.8 NNE 4 7 986.9 - 2.0 - - - - - - -
03/04:30am 14.0 NNW 6 9 987.6 - 1.8 - - - - - - -
03/04:00am 14.8 NW 12 19 988.2 - 1.4 - - - - - - -
03/03:45am 15.8 NW 15 28 987.9 - 0.8 - - - - - - -
03/03:30am 15.9 NW 13 21 987.8 - 0.4 - - - - - - -
03/03:00am 16.2 NNW 14 23 987.7 - 0.2 - - - - - - -
03/02:30am 17.4 NNW 16 31 987.7 - 0.2 - - - - - - -
03/02:02am 17.7 NNW 18 28 988.0 - 0.2 - - - - - - -
03/02:00am 17.7 NW 19 28 987.9 - 0.2 - - - - - - -
03/01:30am 17.6 NNW 23 40 987.9 - 0.2 - - - - - - -
03/01:00am 17.5 NNW 21 37 988.0 - 0.2 - - - - - - -
03/12:30am 17.7 NNW 25 41 988.3 - 0.2 - - - - - - -
03/12:00am 17.3 NNW 27 43 988.8 - 0.2 - - - - - - -
 
Date/Time
EST
Temp

°C
Wind Pressure Rain
since 9am
mm
Weather Cloud Vis
km
Sea
Height
m
Swell
Dir
 
Speed
knots
Gust
knots
hPa Trend Height
m
Period
s
Dir
02/11:34pm 17.0 NNW 23 35 988.9 - 0.2 - - - - - - -
02/11:30pm 16.8 NNW 24 32 988.9 - 0.2 - - - - - - -
02/11:00pm 16.9 NNW 24 36 989.6 - 0.2 - - - - - - -
02/10:30pm 16.7 NNW 25 40 989.9 - 0.2 - - - - - - -
02/10:00pm 16.1 NNW 22 34 989.9 - 0.2 - - - - - - -
02/09:30pm 16.2 NNW 25 38 990.4 - 0.2 - - - - - - -
02/09:00pm 16.1 NNW 20 31 991.2 - 0.2 - - - - - - -
02/08:30pm 16.2 NNW 21 32 991.8 - 0.2 - - - - - - -
02/08:00pm 16.4 NNW 17 33 993.0 - 0.2 - - - - - - -
02/07:32pm 16.5 NNW 19 45 993.5 - 0.2 - - - - - - -
02/07:30pm 16.2 NNW 16 28 993.6 - 0.2 - - - - - - -
02/07:00pm 16.0 NNW 18 30 993.8 - 0.2 - - - - - - -
02/06:36pm 16.1 N 15 27 993.9 - 0.2 - - - - - - -
02/06:30pm 16.1 N 14 23 994.1 - 0.2 - - - - - - -
02/06:05pm 16.2 N 16 28 994.3 - 0.2 - - - - - - -
02/06:00pm 16.2 N 15 24 994.3 - 0.2 - - - - - - -
02/05:34pm 16.5 N 15 28 994.6 - 0.2 - - - - - - -
02/05:30pm 16.4 NNW 14 23 994.8 - 0.2 - - - - - - -
02/05:00pm 16.6 N 16 29 994.9 - 0.2 - - - - - - -
02/04:30pm 16.7 N 16 27 995.6 - 0.2 - - - - - - -
02/04:14pm 16.8 NNW 18 29 995.8 - 0.2 - - - - - - -
02/04:00pm 17.2 NNW 20 28 995.9 - 0.2 - - - - - - -
02/03:30pm 17.3 NNW 18 28 996.4 - 0.2 - - - - - - -
02/03:04pm 17.3 NNW 17 30 996.6 - 0.2 - - - - - - -
02/03:00pm 17.3 NNW 17 24 996.7 - 0.2 - - - - - - -
02/02:30pm 17.6 NNW 19 33 997.3 - 0.2 - - - - - - -
02/02:00pm 17.3 NNW 21 33 997.3 - 0.2 - - - - - - -
02/01:32pm 17.2 NNW 21 31 998.0 - 0.2 - - - - - - -
02/01:30pm 17.1 NNW 22 31 998.0 - 0.2 - - - - - - -
02/01:00pm 17.2 NW 19 32 998.5 - 0.2 - - - - - - -
02/12:30pm 16.1 NW 16 31 999.1 - 0.0 - - - - - - -
02/12:05pm 15.6 NNW 15 25 999.6 - 0.0 - - - - - - -
02/12:00pm 15.6 NNW 12 21 999.8 - 0.0 - - - - - - -
02/11:30am 15.1 NW 20 30 1000.3 - 0.0 - - - - - - -
02/11:09am 14.6 NW 15 25 1000.6 - 0.0 - - - - - - -
02/11:00am 14.6 NNW 13 19 1000.6 - 0.0 - - - - - - -
02/10:30am 14.7 NNW 9 14 1001.1 - 0.0 - - - - - - -
02/10:00am 13.7 NNW 8 12 1001.8 - 0.0 - - - - - - -
02/09:30am 12.7 N 8 12 1002.0 - 0.0 - - - - - - -
02/09:00am 11.7 N 9 14 1002.5 - 5.6 - - - - - - -
02/08:30am 11.1 NNE 6 9 1002.7 - 5.6 - - - - - - -
02/08:00am 10.8 N 8 13 1002.7 - 5.6 - - - - - - -
02/07:30am 10.3 N 8 13 1002.6 - 5.6 - - - - - - -
02/07:00am 10.3 N 10 14 1002.7 - 5.6 - - - - - - -
02/06:30am 10.3 N 10 15 1002.5 - 5.6 - - - - - - -
02/06:00am 10.2 N 9 14 1002.6 - 5.6 - - - - - - -
02/05:30am 10.3 N 13 18 1002.7 - 5.6 - - - - - - -
02/05:00am 10.5 NNW 13 21 1002.2 - 5.6 - - - - - - -
02/04:30am 10.3 N 11 18 1002.3 - 5.6 - - - - - - -
02/04:07am 10.9 NNW 15 26 1002.0 - 5.6 - - - - - - -
02/04:00am 10.5 NNW 12 23 1002.0 - 5.6 - - - - - - -
02/03:30am 10.6 NNW 14 21 1002.0 - 5.6 - - - - - - -
02/03:00am 10.3 N 11 17 1001.7 - 5.6 - - - - - - -
02/02:46am 10.3 NNW 13 25 1001.8 - 5.6 - - - - - - -
02/02:30am 10.2 N 13 19 1001.5 - 5.6 - - - - - - -
02/02:00am 10.0 NNW 10 14 1001.7 - 5.6 - - - - - - -
02/01:30am 9.8 NNW 12 17 1001.6 - 5.6 - - - - - - -
02/01:00am 10.0 NNW 11 19 1001.6 - 5.6 - - - - - - -
02/12:30am 9.7 NNW 11 17 1001.3 - 5.6 - - - - - - -
02/12:00am 9.5 NNW 14 19 1001.1 - 5.6 - - - - - - -
 
Date/Time
EST
Temp

°C
Wind Pressure Rain
since 9am
mm
Weather Cloud Vis
km
Sea
Height
m
Swell
Dir
 
Speed
knots
Gust
knots
hPa Trend Height
m
Period
s
Dir
01/11:35pm 10.7 WNW 21 40 1000.6 - 5.6 - - - - - - -
01/11:30pm 11.0 NW 17 40 1000.4 - 5.6 - - - - - - -
01/11:29pm 11.0 NW 15 40 1000.4 - 5.6 - - - - - - -
01/11:00pm 10.7 NNW 9 16 1000.5 - 5.6 - - - - - - -
01/10:37pm 11.2 WNW 15 27 1000.4 - 5.6 - - - - - - -
01/10:30pm 11.2 WNW 12 25 1000.3 - 5.6 - - - - - - -
01/10:07pm 11.4 W 13 27 1000.1 - 5.6 - - - - - - -
01/10:00pm 11.3 WNW 11 21 999.9 - 5.6 - - - - - - -
01/09:30pm 11.7 WNW 18 35 999.2 - 5.6 - - - - - - -
01/09:11pm 11.9 W 9 27 999.0 - 5.6 - - - - - - -
01/09:00pm 12.0 NW 10 23 998.9 - 5.6 - - - - - - -
01/08:30pm 12.0 W 13 26 998.3 - 5.6 - - - - - - -
01/08:11pm 11.7 W 13 27 997.6 - 5.6 - - - - - - -
01/08:00pm 11.6 W 16 32 997.3 - 5.6 - - - - - - -
01/07:42pm 11.8 W 14 28 996.5 - 5.6 - - - - - - -
01/07:37pm 11.7 W 16 36 996.1 - 5.6 - - - - - - -
01/07:30pm 11.5 W 20 36 996.1 - 5.6 - - - - - - -
01/07:00pm 11.4 WSW 18 38 994.4 - 5.6 - - - - - - -
01/06:30pm 11.5 WSW 19 33 993.3 - 5.4 - - - - - - -
01/06:00pm 11.7 WSW 22 45 992.3 - 4.8 Rain - - - - - -
01/05:43pm 12.4 WSW 21 48 991.3 - 3.6 - - - - - - -
01/05:38pm 12.4 WSW 16 38 991.1 - 3.4 - - - - - - -
01/05:34pm 12.7 WSW 15 25 990.8 - 3.0 - - - - - - -
01/05:30pm 12.9 WSW 14 25 990.8 - 2.8 - - - - - - -
01/05:00pm 13.6 NNW 11 16 989.3 - 1.6 - - - - - - -
01/04:30pm 14.9 N 4 9 988.3 - 1.6 - - - - - - -
01/04:00pm 15.7 WNW 10 15 987.9 - 1.6 - - - - - - -
01/03:30pm 16.5 NW 13 22 987.4 - 1.6 - - - - - - -
01/03:00pm 17.1 NNW 10 16 987.3 - 1.6 - - - - - - -
01/02:30pm 16.2 N 7 10 987.1 - 1.6 - - - - - - -
01/02:00pm 15.4 N 5 10 987.9 - 1.6 - - - - - - -
01/01:30pm 14.8 NNW 8 11 988.4 - 1.6 - - - - - - -
01/01:00pm 14.6 NNW 8 14 989.2 - 1.6 - - - - - - -
01/12:30pm 14.7 N 9 14 989.5 - 1.4 - - - - - - -
01/12:00pm 14.5 NNW 7 11 991.5 - 1.4 - - - - - - -
01/11:30am 14.2 NNW 6 8 992.1 - 1.4 - - - - - - -
01/11:00am 13.0 NNW 7 9 992.9 - 1.4 - - - - - - -
01/10:30am 12.7 NNW 5 9 993.7 - 1.4 - - - - - - -
01/10:00am 12.6 NNW 8 11 994.6 - 1.2 - - - - - - -
01/09:30am 12.9 NNW 7 12 996.0 - 0.6 - - - - - - -
01/09:00am 12.8 N 11 16 996.6 - 6.6 Rain - - - - - -
01/08:30am 13.2 N 9 13 997.1 - 4.0 - - - - - - -
01/08:00am 15.2 NW 10 22 997.2 - 1.0 - - - - - - -
01/07:30am 13.8 WNW 3 7 997.1 - 0.8 - - - - - - -
01/07:00am 13.5 WSW 8 11 997.5 - 0.8 - - - - - - -
01/06:30am 13.3 SW 6 7 998.7 - 0.8 - - - - - - -
01/06:00am 13.4 NNE 1 5 999.4 - 0.8 Recent precip. - - - - - -
01/05:30am 13.7 SW 6 8 1000.4 - 0.8 - - - - - - -
01/05:00am 14.0 WSW 5 6 1001.2 - 0.0 - - - - - - -
01/04:30am 13.1 CALM 0 0 1001.1 - 0.0 - - - - - - -
01/04:00am 13.6 WSW 1 5 1001.3 - 0.0 - - - - - - -
01/03:30am 13.6 SW 2 5 1001.8 - 0.0 - - - - - - -
01/03:00am 14.2 WNW 6 7 1002.3 - 0.0 - - - - - - -
01/02:30am 13.9 WNW 5 7 1002.8 - 0.0 - - - - - - -
01/02:00am 14.3 WSW 4 5 1003.5 - 0.0 - - - - - - -
01/01:30am 14.1 WNW 5 7 1004.3 - 0.0 - - - - - - -
01/01:00am 14.5 WSW 9 10 1004.9 - 0.0 - - - - - - -
01/12:30am 14.8 W 8 9 1005.3 - 0.0 - - - - - - -
01/12:00am 14.7 SW 5 6 1005.5 - 0.0 - - - - - - -
 
Date/Time
EST
Temp

°C
Wind Pressure Rain
since 9am
mm
Weather Cloud Vis
km
Sea
Height
m
Swell
Dir
 
Speed
knots
Gust
knots
hPa Trend Height
m
Period
s
Dir
30/11:30pm 15.3 SSW 4 5 1006.0 - 0.0 - - - - - - -
30/11:00pm 15.6 CALM 0 1 1006.3 - 0.0 - - - - - - -
30/10:30pm 15.4 N 4 5 1006.5 - 0.0 - - - - - - -
30/10:00pm 16.5 N 4 8 1006.8 - 0.0 - - - - - - -
30/09:30pm 17.2 N 6 10 1007.0 - 0.0 - - - - - - -
30/09:00pm 17.6 NNW 9 14 1006.8 - 0.0 - - - - - - -
30/08:30pm 18.3 NNW 10 14 1006.6 - 0.0 - - - - - - -
30/08:00pm 19.0 NNW 11 17 1006.6 - 0.0 - - - - - - -
30/07:30pm 19.2 NNW 11 15 1006.9 - 0.0 - - - - - - -
30/07:00pm 19.3 N 10 14 1006.8 - 0.0 - - - - - - -
30/06:30pm 19.5 N 9 13 1006.7 - 0.0 - - - - - - -
30/06:00pm 19.5 N 7 10 1006.7 - 0.0 - - - - - - -
30/05:30pm 19.3 NW 4 9 1006.6 - 0.0 - - - - - - -
30/05:00pm 19.8 NNW 5 9 1006.5 - 0.0 - - - - - - -
30/04:30pm 20.6 N 9 14 1006.6 - 0.0 - - - - - - -
30/04:00pm 20.9 N 11 19 1006.8 - 0.0 - - - - - - -
30/03:30pm 21.1 NNW 12 21 1006.9 - 0.0 - - - - - - -
30/03:00pm 21.2 NNW 15 26 1006.8 - 0.0 - - - - - - -
30/02:47pm 21.5 NNW 15 25 1006.9 - 0.0 - - - - - - -
30/02:30pm 21.6 NNW 15 22 1007.1 - 0.0 - - - - - - -
30/02:26pm 21.6 NNW 14 21 1007.1 - 0.0 - - - - - - -
30/02:00pm 21.7 NNW 8 17 1007.1 - 0.0 - - - - - - -
30/01:30pm 21.5 N 11 16 1007.2 - 0.0 - - - - - - -

Other Formats:

Comma delimited format used in spreadsheet applications
http://www.bom.gov.au/fwo/IDT60701/IDT60701.94970.axf

JavaScript Object Notation format (JSON) in row-major order
http://www.bom.gov.au/fwo/IDT60701/IDT60701.94970.json